createdAt,value
2023-01-10T00:04:57.878Z,100972.03
2023-01-10T00:09:59.557Z,100972.25
2023-01-10T00:15:01.237Z,100983.53
2023-01-10T00:20:02.911Z,100980.78
2023-01-10T00:25:05.177Z,100991.66
2023-01-10T00:30:14.364Z,101009.72
2023-01-10T00:35:15.994Z,101013.56
2023-01-10T00:40:17.782Z,101022.50
2023-01-10T00:45:20.009Z,101029.31
2023-01-10T00:50:21.644Z,101039.53
2023-01-10T00:55:23.308Z,101034.91
2023-01-10T01:00:25.045Z,101036.97
2023-01-10T01:05:27.323Z,101035.78
2023-01-10T01:10:29.025Z,101051.50
2023-01-10T01:15:30.768Z,101043.50
2023-01-10T01:20:32.800Z,101053.31
2023-01-10T01:25:34.915Z,101059.09
2023-01-10T01:30:36.527Z,101070.91
2023-01-10T01:35:38.114Z,101085.84
2023-01-10T01:40:41.582Z,101083.25
2023-01-10T01:45:43.372Z,101092.75
2023-01-10T01:51:05.311Z,101098.41
2023-01-10T01:56:16.569Z,101104.03
2023-01-10T02:01:19.040Z,101104.94
2023-01-10T02:06:23.742Z,101114.38
2023-01-10T02:11:25.463Z,101114.94
2023-01-10T02:16:27.223Z,101121.72
2023-01-10T02:21:43.936Z,101128.66
2023-01-10T02:26:57.733Z,101112.81
2023-01-10T02:32:42.066Z,101111.13
2023-01-10T02:38:01.181Z,101114.88
2023-01-10T02:43:20.891Z,101130.13
2023-01-10T02:48:22.819Z,101133.34
2023-01-10T02:53:29.644Z,101148.53
2023-01-10T02:59:03.475Z,101149.25
2023-01-10T03:04:22.273Z,101151.59
2023-01-10T03:09:39.267Z,101148.53
2023-01-10T03:14:42.723Z,101157.06
2023-01-10T03:19:49.806Z,101167.00
2023-01-10T03:24:54.152Z,101167.84
2023-01-10T03:30:03.078Z,101181.38
2023-01-10T03:35:06.227Z,101191.47
2023-01-10T03:40:22.670Z,101190.06
2023-01-10T03:45:33.884Z,101196.81
2023-01-10T03:50:37.650Z,101191.34
2023-01-10T03:55:42.216Z,101212.53
2023-01-10T04:00:43.879Z,101218.41
2023-01-10T04:05:45.701Z,101227.63
2023-01-10T04:10:49.357Z,101231.97
2023-01-10T04:15:51.551Z,101231.22
2023-01-10T04:20:53.121Z,101242.44
2023-01-10T04:25:54.740Z,101244.00
2023-01-10T04:30:56.456Z,101246.59
2023-01-10T04:35:58.144Z,101246.34
2023-01-10T04:40:59.859Z,101254.41
2023-01-10T04:46:01.535Z,101255.72
2023-01-10T04:51:04.272Z,101247.94
2023-01-10T04:56:08.350Z,101256.47
2023-01-10T05:01:18.539Z,101270.88
2023-01-10T05:06:20.729Z,101280.97
2023-01-10T05:11:22.545Z,101301.25
2023-01-10T05:16:25.515Z,101306.91
2023-01-10T05:21:27.246Z,101303.56
2023-01-10T05:26:28.828Z,101312.44
2023-01-10T05:31:30.481Z,101311.91
2023-01-10T05:36:32.228Z,101321.13
2023-01-10T05:41:34.037Z,101319.34
2023-01-10T05:46:36.737Z,101319.34
2023-01-10T05:51:38.566Z,101329.16
2023-01-10T05:56:40.581Z,101341.97
2023-01-10T06:01:43.532Z,101348.03
2023-01-10T06:06:45.209Z,101342.31
2023-01-10T06:11:46.928Z,101338.56
2023-01-10T06:16:49.503Z,101339.00
2023-01-10T06:21:51.172Z,101340.72
2023-01-10T06:26:52.868Z,101355.88
2023-01-10T06:31:54.534Z,101356.16
2023-01-10T06:36:56.214Z,101365.50
2023-01-10T06:41:57.789Z,101365.50
2023-01-10T06:46:59.472Z,101371.56
2023-01-10T06:52:01.203Z,101390.28
2023-01-10T06:57:02.800Z,101399.66
2023-01-10T07:02:04.533Z,101423.16
2023-01-10T07:07:06.448Z,101422.84
2023-01-10T07:12:08.024Z,101426.31
2023-01-10T07:17:09.862Z,101429.19
2023-01-10T07:22:14.649Z,101436.41
2023-01-10T07:27:17.326Z,101438.56
2023-01-10T07:32:18.997Z,101443.31
2023-01-10T07:37:20.640Z,101443.44
2023-01-10T07:42:22.340Z,101439.28
2023-01-10T07:47:25.034Z,101436.66
2023-01-10T07:52:26.710Z,101430.06
2023-01-10T07:57:28.349Z,101420.41
2023-01-10T08:02:30.138Z,101439.56
2023-01-10T08:07:32.070Z,101454.25
2023-01-10T08:12:34.747Z,101451.09
2023-01-10T08:17:36.903Z,101448.50
2023-01-10T08:22:38.680Z,101449.34
2023-01-10T08:27:40.287Z,101450.22
2023-01-10T08:32:42.015Z,101450.66
2023-01-10T08:37:44.297Z,101442.31
2023-01-10T08:42:45.968Z,101436.66
2023-01-10T08:47:47.651Z,101440.31
2023-01-10T08:52:49.374Z,101449.06
2023-01-10T08:57:50.999Z,101441.88
2023-01-10T09:02:52.788Z,101433.38
2023-01-10T09:08:00.389Z,101433.38
2023-01-10T09:13:05.037Z,101435.66
2023-01-10T09:18:07.844Z,101436.53
2023-01-10T09:23:19.031Z,101434.06
2023-01-10T09:28:22.502Z,101422.41
2023-01-10T09:33:25.296Z,101413.63
2023-01-10T09:38:28.196Z,101422.53
2023-01-10T09:43:54.789Z,101436.63
2023-01-10T09:49:21.106Z,101428.28
2023-01-10T09:54:29.621Z,101414.69
2023-01-10T09:59:37.680Z,101417.44
2023-01-10T10:04:40.934Z,101417.63
2023-01-10T10:09:43.715Z,101419.31
2023-01-10T10:14:57.555Z,101410.97
2023-01-10T10:20:17.637Z,101409.44
2023-01-10T10:25:37.284Z,101412.13
2023-01-10T10:30:57.361Z,101406.06
2023-01-10T10:36:08.774Z,101392.38
2023-01-10T10:41:25.770Z,101374.09
2023-01-10T10:46:27.557Z,101369.66
2023-01-10T10:51:48.082Z,101365.91
2023-01-10T10:56:52.963Z,101355.69
2023-01-10T11:01:55.834Z,101348.78
2023-01-10T11:06:57.576Z,101355.41
2023-01-10T11:11:59.477Z,101360.28
2023-01-10T11:17:22.485Z,101348.91
2023-01-10T11:22:25.580Z,101335.50
2023-01-10T11:27:36.050Z,101330.94
2023-01-10T11:32:48.255Z,101323.03
2023-01-10T11:38:01.923Z,101315.25
2023-01-10T11:43:24.925Z,101306.59
2023-01-10T11:48:56.332Z,101305.03
2023-01-10T11:53:59.190Z,101283.00
2023-01-10T11:59:12.738Z,101285.91
2023-01-10T12:04:18.550Z,101271.66
2023-01-10T12:09:45.127Z,101268.81
2023-01-10T12:14:47.911Z,101251.09
2023-01-10T12:19:53.393Z,101233.84
2023-01-10T12:24:57.122Z,101231.66
2023-01-10T12:30:04.602Z,101210.25
2023-01-10T12:35:45.364Z,101217.03
2023-01-10T12:40:52.986Z,101213.84
2023-01-10T12:46:12.749Z,101207.09
2023-01-10T12:51:28.146Z,101185.66
2023-01-10T12:56:30.537Z,101177.47
2023-01-10T13:01:36.117Z,101174.16
2023-01-10T13:06:41.004Z,101163.09
2023-01-10T13:11:50.744Z,101146.69
2023-01-10T13:17:03.572Z,101140.78
2023-01-10T13:22:22.849Z,101139.34
2023-01-10T13:27:28.960Z,101121.78
2023-01-10T13:32:34.977Z,101105.38
2023-01-10T13:37:39.933Z,101099.91
2023-01-10T13:43:00.243Z,101089.00
2023-01-10T13:48:03.758Z,101069.16
2023-01-10T13:53:08.709Z,101065.41
2023-01-10T13:58:21.173Z,101058.53
2023-01-10T14:03:44.739Z,101047.59
2023-01-10T14:08:55.079Z,101020.56
2023-01-10T14:14:00.588Z,101012.22
2023-01-10T14:19:05.636Z,101000.44
2023-01-10T14:24:27.133Z,100964.81
2023-01-10T14:29:32.601Z,100941.53
2023-01-10T14:34:37.155Z,100929.59
2023-01-10T14:39:42.574Z,100912.53
2023-01-10T14:44:51.252Z,100907.50
2023-01-10T14:49:52.840Z,100897.63
2023-01-10T14:55:16.822Z,100870.44
2023-01-10T15:00:20.486Z,100869.41
2023-01-10T15:05:27.845Z,100849.13
2023-01-10T15:10:41.964Z,100834.09
2023-01-10T15:15:47.204Z,100822.28
2023-01-10T15:20:49.414Z,100808.50
2023-01-10T15:25:59.035Z,100811.09
2023-01-10T15:31:00.858Z,100821.44
2023-01-10T15:36:08.394Z,100807.66
2023-01-10T15:41:16.429Z,100808.09
2023-01-10T15:46:24.064Z,100790.69
2023-01-10T15:51:33.356Z,100780.38
2023-01-10T15:56:42.219Z,100768.72
2023-01-10T16:01:53.962Z,100778.59
2023-01-10T16:07:07.689Z,100737.72
2023-01-10T16:12:46.342Z,100714.16
2023-01-10T16:17:49.203Z,100706.81
2023-01-10T16:22:51.009Z,100702.25
2023-01-10T16:27:56.281Z,100692.63
2023-01-10T16:33:00.805Z,100669.22
2023-01-10T16:38:03.859Z,100659.63
2023-01-10T16:43:34.692Z,100661.91
2023-01-10T16:48:36.505Z,100660.06
2023-01-10T16:53:38.215Z,100657.63
2023-01-10T16:58:39.987Z,100646.53
2023-01-10T17:03:42.382Z,100650.84
2023-01-10T17:08:45.200Z,100601.53
2023-01-10T17:13:47.571Z,100612.13
2023-01-10T17:18:49.388Z,100610.22
2023-01-10T17:23:51.490Z,100579.69
2023-01-10T17:28:53.295Z,100595.91
2023-01-10T17:33:55.022Z,100583.94
2023-01-10T17:38:57.113Z,100566.91
2023-01-10T17:43:58.860Z,100564.22
2023-01-10T17:49:02.558Z,100550.94
2023-01-10T17:54:04.614Z,100553.84
2023-01-10T17:59:06.765Z,100542.97
2023-01-10T18:04:08.816Z,100545.59
2023-01-10T18:09:11.004Z,100534.84
2023-01-10T18:14:31.376Z,100534.69
2023-01-10T18:19:33.484Z,100536.94
2023-01-10T18:24:35.227Z,100533.03
2023-01-10T18:29:37.092Z,100530.53
2023-01-10T18:34:38.768Z,100519.25
2023-01-10T18:39:40.600Z,100513.97
2023-01-10T18:45:03.469Z,100508.69
2023-01-10T18:50:05.699Z,100497.94
2023-01-10T18:55:08.225Z,100481.38
2023-01-10T19:00:11.089Z,100481.06
2023-01-10T19:05:14.262Z,100470.44
2023-01-10T19:10:17.205Z,100474.25
2023-01-10T19:15:19.002Z,100483.31
2023-01-10T19:20:20.739Z,100490.31
2023-01-10T19:25:22.887Z,100472.50
2023-01-10T19:30:24.563Z,100455.59
2023-01-10T19:35:26.404Z,100456.75
2023-01-10T19:40:53.334Z,100442.91
2023-01-10T19:45:56.921Z,100456.06
2023-01-10T19:51:05.047Z,100440.66
2023-01-10T19:56:10.357Z,100438.28
2023-01-10T20:01:15.471Z,100430.22
2023-01-10T20:06:37.106Z,100429.38
2023-01-10T20:11:40.438Z,100421.47
2023-01-10T20:16:42.975Z,100405.88
2023-01-10T20:21:44.935Z,100405.34
2023-01-10T20:26:48.455Z,100402.25
2023-01-10T20:31:53.078Z,100404.97
2023-01-10T20:36:55.285Z,100394.19
2023-01-10T20:41:57.714Z,100382.19
2023-01-10T20:46:59.550Z,100372.75
2023-01-10T20:52:01.299Z,100384.03
2023-01-10T20:57:03.182Z,100373.59
2023-01-10T21:02:04.987Z,100362.25
2023-01-10T21:07:06.974Z,100360.72
2023-01-10T21:12:22.189Z,100369.94
2023-01-10T21:17:24.814Z,100344.56
2023-01-10T21:22:28.270Z,100334.44
2023-01-10T21:27:32.834Z,100329.50
2023-01-10T21:32:34.582Z,100327.31
2023-01-10T21:37:36.322Z,100313.41
2023-01-10T21:42:44.704Z,100308.22
2023-01-10T21:47:46.850Z,100304.88
2023-01-10T21:52:48.546Z,100299.69
2023-01-10T21:57:50.425Z,100292.41
2023-01-10T22:02:52.314Z,100299.81
2023-01-10T22:07:56.119Z,100282.78
2023-01-10T22:12:57.863Z,100275.22
2023-01-10T22:18:03.441Z,100285.44
2023-01-10T22:23:28.137Z,100270.94
2023-01-10T22:28:35.544Z,100263.72
2023-01-10T22:33:38.320Z,100255.50
2023-01-10T22:38:41.709Z,100255.59
2023-01-10T22:43:44.462Z,100256.53
2023-01-10T22:48:46.671Z,100244.81
2023-01-10T22:53:53.662Z,100234.88
2023-01-10T22:58:55.448Z,100242.72
2023-01-10T23:03:57.256Z,100244.63
2023-01-10T23:08:59.624Z,100240.94
2023-01-10T23:14:01.486Z,100221.28
2023-01-10T23:19:03.458Z,100218.00
2023-01-10T23:24:05.536Z,100219.50
2023-01-10T23:29:07.312Z,100227.38
2023-01-10T23:34:09.131Z,100235.69
2023-01-10T23:39:10.953Z,100228.59
2023-01-10T23:44:12.842Z,100201.78
2023-01-10T23:49:14.704Z,100206.25
2023-01-10T23:54:17.413Z,100221.66
2023-01-10T23:59:22.871Z,100235.88
